Time;durP1;ratioP1;P1;durP2;ratioP2;P2;SDS_P1;SDS_P2;PMS_P1;PMS_P2;Temp;Humidity;BMP_temperature;BMP_pressure;BME280_temperature;BME280_humidity;BME280_pressure;Samples;Min_cycle;Max_cycle;Signal;HPM_P1;HPM_P2
2022/01/07 00:00:12;;;;;;;14.90;7.47;;;3.90;99.90;;;;;;4987041;28;20056;-89
2022/01/07 00:02:41;;;;;;;23.55;8.10;;;3.90;99.90;;;;;;5002253;28;20037;-87
2022/01/07 00:05:07;;;;;;;20.88;8.00;;;3.90;99.90;;;;;;5031209;28;20051;-90
2022/01/07 00:07:35;;;;;;;23.73;8.07;;;4.00;99.90;;;;;;4999865;28;20041;-89
2022/01/07 00:10:01;;;;;;;21.83;6.63;;;4.00;99.90;;;;;;4999243;28;20048;-88
2022/01/07 00:12:27;;;;;;;22.25;7.85;;;3.90;99.90;;;;;;5032685;28;20135;-88
2022/01/07 00:14:52;;;;;;;23.58;8.57;;;3.90;99.90;;;;;;5014907;28;20049;-88
2022/01/07 00:17:18;;;;;;;14.85;7.07;;;3.90;99.90;;;;;;5031818;28;20556;-90
2022/01/07 00:19:44;;;;;;;17.63;8.10;;;3.80;99.90;;;;;;5015222;28;20065;-88
2022/01/07 00:22:09;;;;;;;17.63;7.20;;;3.90;99.90;;;;;;5014516;28;20045;-88
2022/01/07 00:24:35;;;;;;;18.48;7.85;;;3.90;99.90;;;;;;5031937;28;20107;-88
2022/01/07 00:27:01;;;;;;;18.13;7.68;;;3.80;99.90;;;;;;5031664;28;20045;-87
2022/01/07 00:29:26;;;;;;;19.23;7.18;;;4.60;99.90;;;;;;5015384;28;20045;-88
2022/01/07 00:31:52;;;;;;;18.77;7.70;;;4.90;99.90;;;;;;5031380;28;20130;-87
2022/01/07 00:34:18;;;;;;;15.90;6.55;;;4.00;99.90;;;;;;5016550;28;20383;-88
2022/01/07 00:36:43;;;;;;;18.52;7.28;;;3.90;99.90;;;;;;5036725;28;20077;-88
2022/01/07 00:39:09;;;;;;;18.58;7.60;;;3.90;99.90;;;;;;5016745;28;20144;-89
2022/01/07 00:41:35;;;;;;;13.68;6.85;;;4.80;99.90;;;;;;5015417;28;20053;-87
2022/01/07 00:44:00;;;;;;;19.13;6.82;;;3.80;99.90;;;;;;4998375;28;20057;-88
2022/01/07 00:46:26;;;;;;;21.05;7.38;;;3.90;99.90;;;;;;5031797;28;20122;-88
2022/01/07 00:48:52;;;;;;;24.95;8.30;;;5.10;99.90;;;;;;4998618;28;20060;-88
2022/01/07 00:51:17;;;;;;;15.60;7.10;;;3.90;99.90;;;;;;5014241;28;20098;-88
2022/01/07 00:53:43;;;;;;;15.70;6.72;;;3.90;99.90;;;;;;5015263;28;20112;-91
2022/01/07 00:56:09;;;;;;;13.65;6.45;;;3.80;99.90;;;;;;4998326;28;20071;-89
2022/01/07 00:58:34;;;;;;;19.13;7.25;;;3.80;99.90;;;;;;4981478;28;20041;-89
2022/01/07 01:01:00;;;;;;;20.13;8.27;;;3.90;99.90;;;;;;5029825;28;20038;-88
2022/01/07 01:03:26;;;;;;;13.32;7.03;;;3.90;99.90;;;;;;5031065;28;20042;-88
2022/01/07 01:05:52;;;;;;;17.80;7.35;;;3.70;99.90;;;;;;5031481;28;20072;-87
2022/01/07 01:08:18;;;;;;;17.48;7.55;;;3.70;99.90;;;;;;5031082;28;20481;-90
2022/01/07 01:10:44;;;;;;;16.88;7.88;;;3.70;99.90;;;;;;5014938;28;20124;-90
2022/01/07 01:13:09;;;;;;;17.95;7.80;;;3.60;99.90;;;;;;5030527;28;20433;-90
2022/01/07 01:15:35;;;;;;;17.63;8.05;;;3.50;99.90;;;;;;5031229;28;20053;-90
2022/01/07 01:18:01;;;;;;;16.23;7.78;;;3.40;99.90;;;;;;4997655;28;20085;-89
2022/01/07 01:20:27;;;;;;;18.13;8.07;;;3.50;99.90;;;;;;5014533;28;20052;-89
2022/01/07 01:22:53;;;;;;;16.73;7.88;;;3.30;99.90;;;;;;5030443;28;20524;-88
2022/01/07 01:25:18;;;;;;;21.40;8.35;;;4.50;99.90;;;;;;5014499;28;20041;-89
2022/01/07 01:27:44;;;;;;;24.65;9.20;;;3.90;99.90;;;;;;5030812;28;20491;-89
2022/01/07 01:30:11;;;;;;;16.80;8.55;;;3.10;99.90;;;;;;5014098;28;20084;-90
2022/01/07 01:32:37;;;;;;;18.10;8.90;;;3.20;99.90;;;;;;5031800;28;20053;-90
2022/01/07 01:35:04;;;;;;;25.58;10.77;;;3.20;99.90;;;;;;5013114;28;20057;-89
2022/01/07 01:37:30;;;;;;;23.38;9.38;;;3.20;99.90;;;;;;5014360;28;20171;-89
2022/01/07 01:39:56;;;;;;;24.20;9.68;;;4.20;99.90;;;;;;5014074;28;20073;-87
2022/01/07 01:42:22;;;;;;;17.52;8.48;;;3.10;99.90;;;;;;5014147;28;20049;-90
2022/01/07 01:44:48;;;;;;;23.70;10.50;;;3.10;99.90;;;;;;4997293;28;20052;-90
2022/01/07 01:47:14;;;;;;;26.70;10.70;;;3.40;99.90;;;;;;5013701;28;20082;-88
2022/01/07 01:49:39;;;;;;;22.92;10.82;;;3.60;99.90;;;;;;5013645;28;20378;-89
2022/01/07 01:52:05;;;;;;;22.40;11.52;;;3.00;99.90;;;;;;5013240;28;20049;-89
2022/01/07 01:54:31;;;;;;;26.60;10.35;;;2.90;99.90;;;;;;5030117;28;20068;-89
2022/01/07 01:56:57;;;;;;;21.23;8.57;;;3.30;99.90;;;;;;5031640;28;20441;-86
2022/01/07 01:59:27;;;;;;;25.67;10.93;;;3.70;99.90;;;;;;4996786;28;20528;-87
2022/01/07 02:01:53;;;;;;;21.80;10.85;;;3.00;99.90;;;;;;4997454;28;20089;-87
2022/01/07 02:04:19;;;;;;;22.95;10.35;;;3.40;99.90;;;;;;5013146;28;20041;-88
2022/01/07 02:06:47;;;;;;;20.33;11.15;;;3.10;99.90;;;;;;5013630;28;20053;-88
2022/01/07 02:09:13;;;;;;;23.90;12.43;;;2.90;99.90;;;;;;5013202;28;20544;-87
2022/01/07 02:11:38;;;;;;;22.65;10.60;;;3.70;99.90;;;;;;5029743;28;20077;-87
2022/01/07 02:14:04;;;;;;;18.52;10.85;;;2.90;99.90;;;;;;5029501;28;20041;-89
2022/01/07 02:16:30;;;;;;;23.38;11.85;;;3.40;99.90;;;;;;5029251;28;20057;-88
2022/01/07 02:18:55;;;;;;;23.88;11.00;;;2.90;99.90;;;;;;5029926;28;20124;-88
2022/01/07 02:21:21;;;;;;;22.05;11.95;;;2.90;99.90;;;;;;5012839;28;20056;-88
2022/01/07 02:23:47;;;;;;;22.50;12.27;;;3.00;99.90;;;;;;5029632;28;20103;-89
2022/01/07 02:26:13;;;;;;;25.02;12.85;;;2.90;99.90;;;;;;5028970;28;20053;-87
2022/01/07 02:28:40;;;;;;;27.30;12.82;;;2.90;99.90;;;;;;4997222;28;20057;-88
2022/01/07 02:31:05;;;;;;;22.25;13.18;;;2.90;99.90;;;;;;5012740;28;20056;-88
2022/01/07 02:33:31;;;;;;;23.90;13.05;;;3.60;99.90;;;;;;5029983;28;20125;-88
2022/01/07 02:35:57;;;;;;;28.60;13.02;;;2.80;99.90;;;;;;5029807;28;20037;-89
2022/01/07 02:38:23;;;;;;;20.80;13.65;;;2.70;99.90;;;;;;5029172;28;20502;-89
2022/01/07 02:40:48;;;;;;;23.35;14.07;;;2.70;99.90;;;;;;5013552;28;20057;-88
2022/01/07 02:43:14;;;;;;;23.13;13.25;;;2.70;99.90;;;;;;4996397;28;20076;-90
2022/01/07 02:45:40;;;;;;;28.65;14.70;;;4.00;99.90;;;;;;4997443;28;20053;-88
2022/01/07 02:48:05;;;;;;;22.05;11.82;;;2.70;99.90;;;;;;5028826;28;20041;-86
2022/01/07 02:50:34;;;;;;;26.10;15.05;;;2.80;99.90;;;;;;5029427;28;20045;-88
2022/01/07 02:53:00;;;;;;;25.98;13.20;;;2.70;99.90;;;;;;5012891;28;20422;-88
2022/01/07 02:55:26;;;;;;;25.25;13.27;;;3.80;99.90;;;;;;5012717;28;20941;-89
2022/01/07 02:57:51;;;;;;;26.20;13.63;;;2.70;99.90;;;;;;5029552;28;20075;-87
2022/01/07 03:00:18;;;;;;;26.23;14.02;;;3.80;99.90;;;;;;4984422;28;20124;-88
2022/01/07 03:02:44;;;;;;;24.83;15.45;;;2.70;99.90;;;;;;4996786;28;20378;-87
2022/01/07 03:05:10;;;;;;;29.85;16.20;;;2.60;99.90;;;;;;5030561;28;20057;-88
2022/01/07 03:07:36;;;;;;;24.42;11.93;;;2.60;99.90;;;;;;4997168;28;20061;-86
2022/01/07 03:10:02;;;;;;;26.55;16.48;;;2.80;99.90;;;;;;5013550;28;20041;-87
2022/01/07 03:12:28;;;;;;;27.02;15.05;;;2.70;99.90;;;;;;5014266;28;20049;-88
2022/01/07 03:14:54;;;;;;;22.67;13.90;;;2.70;99.90;;;;;;4999548;28;20060;-85
2022/01/07 03:17:19;;;;;;;26.48;15.45;;;3.10;99.90;;;;;;5031682;28;20132;-87
2022/01/07 03:19:45;;;;;;;23.73;14.07;;;3.80;99.90;;;;;;5030444;28;20068;-87
2022/01/07 03:22:11;;;;;;;27.90;15.93;;;3.40;99.90;;;;;;5032951;28;20466;-86
2022/01/07 03:24:38;;;;;;;22.35;13.90;;;2.70;99.90;;;;;;5033604;28;20136;-87
2022/01/07 03:27:04;;;;;;;25.00;14.18;;;3.20;99.90;;;;;;5033869;28;20436;-86
2022/01/07 03:29:30;;;;;;;26.98;15.85;;;2.80;99.90;;;;;;5000226;28;20061;-87
2022/01/07 03:31:55;;;;;;;26.35;14.75;;;2.90;99.90;;;;;;5032615;28;20053;-87
2022/01/07 03:34:21;;;;;;;27.73;17.10;;;4.10;99.90;;;;;;5015858;28;20049;-87
2022/01/07 03:36:47;;;;;;;26.73;16.58;;;3.00;99.90;;;;;;5033059;28;20136;-87
2022/01/07 03:39:12;;;;;;;26.13;15.95;;;2.80;99.90;;;;;;5016159;28;20137;-87
2022/01/07 03:41:38;;;;;;;28.10;17.08;;;3.70;99.90;;;;;;5032380;28;20045;-87
2022/01/07 03:44:04;;;;;;;20.77;13.35;;;4.20;99.90;;;;;;4999613;28;20053;-88
2022/01/07 03:46:30;;;;;;;25.35;17.30;;;2.90;99.90;;;;;;4999454;28;20045;-88
2022/01/07 03:48:55;;;;;;;27.55;16.70;;;2.90;99.90;;;;;;5034105;28;20436;-88
2022/01/07 03:51:21;;;;;;;23.45;15.82;;;3.70;99.90;;;;;;5033299;28;20069;-87
2022/01/07 03:53:47;;;;;;;22.05;13.10;;;2.90;99.90;;;;;;5016082;28;20064;-89
2022/01/07 03:56:17;;;;;;;24.73;14.40;;;3.40;99.90;;;;;;5032626;28;20520;-86
2022/01/07 03:58:44;;;;;;;26.38;16.48;;;2.90;99.90;;;;;;5016951;28;20068;-88
2022/01/07 04:01:09;;;;;;;28.38;17.50;;;2.90;99.90;;;;;;5031860;28;20045;-85
2022/01/07 04:03:35;;;;;;;21.80;14.02;;;3.10;99.90;;;;;;5032004;28;20099;-86
2022/01/07 04:06:00;;;;;;;29.27;18.30;;;3.00;99.90;;;;;;5033992;28;20047;-86
2022/01/07 04:08:26;;;;;;;25.58;18.95;;;2.90;99.90;;;;;;5032922;28;20136;-85
2022/01/07 04:10:52;;;;;;;28.50;17.42;;;2.80;99.90;;;;;;5033145;28;20049;-86
2022/01/07 04:13:17;;;;;;;27.27;16.20;;;2.90;99.90;;;;;;5032266;28;20049;-84
2022/01/07 04:15:43;;;;;;;25.83;17.65;;;3.00;99.90;;;;;;5031550;28;20060;-87
2022/01/07 04:18:09;;;;;;;28.63;18.17;;;3.00;99.90;;;;;;4999860;28;20128;-86
2022/01/07 04:20:35;;;;;;;22.02;14.98;;;2.90;99.90;;;;;;5031064;28;20511;-87
2022/01/07 04:23:01;;;;;;;29.65;19.75;;;3.00;99.90;;;;;;5031376;28;20052;-86
2022/01/07 04:25:27;;;;;;;19.38;11.98;;;3.00;99.90;;;;;;4998800;28;20053;-86
2022/01/07 04:27:54;;;;;;;29.05;16.88;;;4.10;99.90;;;;;;4999483;28;20057;-86
2022/01/07 04:30:21;;;;;;;21.23;14.55;;;3.40;99.90;;;;;;5031295;28;20199;-86
2022/01/07 04:32:48;;;;;;;22.92;14.18;;;3.10;99.90;;;;;;5015181;28;20053;-87
2022/01/07 04:35:14;;;;;;;27.88;16.25;;;3.10;99.90;;;;;;5015642;28;20413;-86
2022/01/07 04:37:40;;;;;;;20.23;12.02;;;3.00;99.90;;;;;;5014845;28;20053;-87
2022/01/07 04:40:07;;;;;;;24.85;16.70;;;3.10;99.90;;;;;;4999400;28;20046;-87
2022/01/07 04:42:33;;;;;;;19.95;13.82;;;3.00;99.90;;;;;;5014412;28;20497;-87
2022/01/07 04:44:59;;;;;;;24.80;15.43;;;3.90;99.90;;;;;;4998948;28;20136;-86
2022/01/07 04:47:25;;;;;;;27.40;16.30;;;3.40;99.90;;;;;;5014406;28;20050;-85
2022/01/07 04:49:50;;;;;;;23.25;16.15;;;3.00;99.90;;;;;;5031853;28;20064;-86
2022/01/07 04:52:17;;;;;;;25.55;16.42;;;3.40;99.90;;;;;;5014571;28;20046;-87
2022/01/07 04:54:44;;;;;;;25.35;15.30;;;3.00;99.90;;;;;;5014814;28;20057;-87
2022/01/07 04:57:10;;;;;;;24.05;15.35;;;3.00;99.90;;;;;;4998566;28;20065;-84
2022/01/07 04:59:35;;;;;;;27.40;17.38;;;3.10;99.90;;;;;;5031931;28;20049;-85
2022/01/07 05:02:01;;;;;;;23.77;16.58;;;3.20;99.90;;;;;;5014361;28;20045;-86
2022/01/07 05:04:26;;;;;;;27.38;16.73;;;3.00;99.90;;;;;;5030706;28;20049;-87
2022/01/07 05:06:52;;;;;;;26.00;15.82;;;3.10;99.90;;;;;;5014910;28;20056;-86
2022/01/07 05:09:18;;;;;;;24.90;15.10;;;3.20;99.90;;;;;;5014716;28;20049;-86
2022/01/07 05:11:48;;;;;;;30.15;15.05;;;3.10;99.90;;;;;;4998196;28;20115;-86
2022/01/07 05:14:14;;;;;;;23.65;14.68;;;4.20;99.90;;;;;;5030883;28;20528;-87
2022/01/07 05:16:39;;;;;;;20.38;13.85;;;3.10;99.90;;;;;;5029939;28;20068;-86
2022/01/07 05:19:05;;;;;;;22.50;12.82;;;4.00;99.90;;;;;;5030957;28;20374;-86
2022/01/07 05:21:31;;;;;;;22.48;14.18;;;3.20;99.90;;;;;;5014145;28;20451;-87
2022/01/07 05:23:56;;;;;;;19.95;13.48;;;3.60;99.90;;;;;;5030430;28;20541;-86
2022/01/07 05:26:22;;;;;;;21.48;14.35;;;3.30;99.90;;;;;;5014575;28;20046;-86
2022/01/07 05:28:50;;;;;;;23.48;14.65;;;3.20;99.90;;;;;;4997420;28;20127;-87
2022/01/07 05:31:19;;;;;;;18.92;12.50;;;3.20;99.90;;;;;;5030665;28;20056;-86
2022/01/07 05:33:45;;;;;;;20.88;13.75;;;3.30;99.90;;;;;;5031609;28;20052;-87
2022/01/07 05:36:10;;;;;;;17.80;13.05;;;3.30;99.90;;;;;;4981418;28;20053;-87
2022/01/07 05:38:36;;;;;;;22.70;14.40;;;3.30;99.90;;;;;;5030505;28;20192;-89
2022/01/07 05:41:01;;;;;;;18.95;11.48;;;3.90;99.90;;;;;;5014023;28;20084;-88
2022/01/07 05:43:28;;;;;;;17.58;12.52;;;3.10;99.90;;;;;;5013748;28;20046;-87
2022/01/07 05:45:54;;;;;;;18.65;13.68;;;2.70;99.90;;;;;;5013659;28;20063;-88
2022/01/07 05:48:21;;;;;;;25.95;14.10;;;3.20;99.90;;;;;;5014393;28;20087;-88
2022/01/07 05:50:46;;;;;;;19.17;13.55;;;3.10;99.90;;;;;;5013542;28;20080;-88
2022/01/07 05:53:12;;;;;;;18.55;13.10;;;3.20;99.90;;;;;;5031544;28;20501;-88
2022/01/07 05:55:38;;;;;;;22.08;13.35;;;3.20;99.90;;;;;;5013507;28;20053;-89
2022/01/07 05:58:03;;;;;;;16.17;11.25;;;3.20;99.90;;;;;;4997517;28;20089;-88
2022/01/07 06:00:29;;;;;;;20.77;14.50;;;3.40;99.90;;;;;;4996940;28;20045;-87
2022/01/07 06:02:55;;;;;;;17.83;10.25;;;3.80;99.90;;;;;;5013126;28;20096;-88
2022/01/07 06:05:20;;;;;;;17.42;12.88;;;3.40;99.90;;;;;;5014262;28;20512;-87
2022/01/07 06:07:46;;;;;;;23.48;13.75;;;4.00;99.90;;;;;;4997248;28;20051;-89
2022/01/07 06:10:12;;;;;;;18.48;12.88;;;3.90;99.90;;;;;;4997492;28;20093;-87
2022/01/07 06:12:38;;;;;;;22.85;14.10;;;3.30;99.90;;;;;;5013308;28;20486;-90
2022/01/07 06:15:05;;;;;;;21.48;14.35;;;3.30;99.90;;;;;;5014561;28;20045;-88
2022/01/07 06:17:30;;;;;;;14.65;10.40;;;3.30;99.90;;;;;;5000107;28;20085;-88
2022/01/07 06:19:56;;;;;;;18.63;14.13;;;3.50;99.90;;;;;;5020891;28;20034;-89
2022/01/07 06:22:22;;;;;;;18.15;13.40;;;3.60;99.90;;;;;;4998920;28;20064;-90
2022/01/07 06:24:47;;;;;;;20.27;12.93;;;3.30;99.90;;;;;;5012921;28;20053;-87
2022/01/07 06:27:13;;;;;;;18.58;12.68;;;3.30;99.90;;;;;;5014196;28;20056;-88
2022/01/07 06:29:39;;;;;;;22.00;12.40;;;4.00;99.90;;;;;;5029103;28;20041;-87
2022/01/07 06:32:11;;;;;;;18.67;13.13;;;3.40;99.90;;;;;;5029914;28;20103;-87
2022/01/07 06:34:37;;;;;;;21.08;13.07;;;3.30;99.90;;;;;;4981068;28;20140;-87
2022/01/07 06:37:02;;;;;;;17.40;12.98;;;3.30;99.90;;;;;;5029847;28;20053;-90
2022/01/07 06:39:29;;;;;;;19.08;9.98;;;3.20;99.90;;;;;;5030155;28;20041;-88
2022/01/07 06:41:55;;;;;;;18.67;13.18;;;3.30;99.90;;;;;;5030177;28;20060;-87
2022/01/07 06:44:21;;;;;;;16.35;10.68;;;3.30;99.90;;;;;;4997197;28;20060;-89
2022/01/07 06:46:46;;;;;;;17.70;11.75;;;3.40;99.90;;;;;;5013160;28;20049;-87
2022/01/07 06:49:13;;;;;;;21.38;13.43;;;3.40;99.90;;;;;;5029998;28;20156;-88
2022/01/07 06:51:40;;;;;;;18.58;13.65;;;3.50;99.90;;;;;;4997473;28;20379;-86
2022/01/07 06:54:07;;;;;;;18.88;13.18;;;3.40;99.90;;;;;;5012761;28;20398;-89
2022/01/07 06:56:34;;;;;;;20.58;14.35;;;3.50;99.90;;;;;;5012148;28;20560;-88
2022/01/07 06:58:59;;;;;;;17.98;13.57;;;3.50;99.90;;;;;;5012632;28;20183;-89
2022/01/07 07:01:27;;;;;;;18.60;14.73;;;3.40;99.90;;;;;;5012862;28;20485;-89
2022/01/07 07:03:53;;;;;;;20.60;13.95;;;3.40;99.90;;;;;;5012576;28;20045;-87
2022/01/07 07:06:18;;;;;;;19.23;13.70;;;3.40;99.90;;;;;;5012721;28;20072;-87
2022/01/07 07:08:44;;;;;;;16.08;12.20;;;3.40;99.90;;;;;;5028783;28;20045;-89
2022/01/07 07:11:10;;;;;;;17.35;12.20;;;3.50;99.90;;;;;;5028972;28;20057;-88
2022/01/07 07:13:35;;;;;;;23.17;13.95;;;3.50;99.90;;;;;;5012771;28;20068;-88
2022/01/07 07:16:01;;;;;;;18.00;13.82;;;3.60;99.90;;;;;;5028346;28;20081;-88
2022/01/07 07:18:27;;;;;;;19.63;14.32;;;3.80;99.90;;;;;;4996764;28;20421;-89
2022/01/07 07:20:52;;;;;;;20.85;14.77;;;3.60;99.90;;;;;;4995974;28;20053;-88
2022/01/07 07:23:18;;;;;;;21.25;14.63;;;4.30;99.90;;;;;;5028431;28;20033;-87
2022/01/07 07:25:44;;;;;;;17.73;11.40;;;3.60;99.90;;;;;;5029213;28;20062;-86
2022/01/07 07:28:09;;;;;;;17.13;13.88;;;2.70;99.90;;;;;;4995938;28;20371;-87
2022/01/07 07:30:39;;;;;;;18.05;14.13;;;3.80;99.90;;;;;;4996072;28;20049;-90
2022/01/07 07:38:41;;;;;;;21.48;15.18;;;4.30;99.90;;;;;;5001296;28;20069;-88
2022/01/07 07:41:07;;;;;;;21.80;14.98;;;3.60;99.90;;;;;;5012475;28;20486;-90
2022/01/07 07:43:33;;;;;;;20.58;15.77;;;4.70;99.90;;;;;;4997142;28;20063;-89
2022/01/07 07:45:59;;;;;;;25.25;15.32;;;3.70;99.90;;;;;;5033665;28;20056;-87
2022/01/07 07:48:25;;;;;;;18.63;15.43;;;3.60;99.90;;;;;;5053067;28;20041;-86
2022/01/07 07:50:50;;;;;;;21.80;15.73;;;4.70;99.90;;;;;;5030533;28;20474;-90
2022/01/07 07:53:16;;;;;;;28.20;17.65;;;5.00;99.90;;;;;;4996858;28;20517;-89
2022/01/07 07:55:43;;;;;;;18.83;14.63;;;4.30;99.90;;;;;;5021313;28;20045;-89
2022/01/07 07:58:09;;;;;;;22.13;16.08;;;3.70;99.90;;;;;;5028814;28;20284;-88
2022/01/07 08:00:35;;;;;;;22.85;17.13;;;3.80;99.90;;;;;;5012682;28;20041;-89
2022/01/07 08:03:00;;;;;;;29.55;18.75;;;4.70;99.90;;;;;;5014388;28;20046;-89
2022/01/07 08:05:26;;;;;;;22.30;16.83;;;3.90;99.90;;;;;;5013914;28;20132;-90
2022/01/07 08:07:52;;;;;;;23.70;17.35;;;3.80;99.90;;;;;;5030878;28;20049;-86
2022/01/07 08:10:23;;;;;;;29.20;19.75;;;4.00;99.90;;;;;;5034634;28;20049;-86
2022/01/07 08:13:03;;;;;;;27.80;20.35;;;3.90;99.90;;;;;;5036800;28;20553;-87
2022/01/07 08:18:18;;;;;;;29.25;20.42;;;4.00;99.90;;;;;;5020322;28;20053;-89
2022/01/07 08:20:44;;;;;;;26.80;17.95;;;4.00;99.90;;;;;;5017962;28;20064;-89
2022/01/07 08:23:10;;;;;;;29.05;21.42;;;4.00;99.90;;;;;;4982160;28;20049;-89
2022/01/07 08:25:36;;;;;;;26.75;18.40;;;4.00;99.90;;;;;;5032813;28;20468;-91
2022/01/07 08:28:04;;;;;;;33.15;20.75;;;4.50;99.90;;;;;;5015739;28;20128;-91
2022/01/07 08:30:36;;;;;;;35.65;22.73;;;4.10;99.90;;;;;;5035150;28;20111;-89
2022/01/07 08:35:49;;;;;;;34.13;22.08;;;4.10;99.90;;;;;;5022569;28;20069;-90
2022/01/07 08:38:15;;;;;;;32.58;22.88;;;5.40;99.90;;;;;;5016829;28;20814;-87
2022/01/07 08:40:40;;;;;;;31.70;22.10;;;4.20;99.90;;;;;;5001146;28;20057;-89
2022/01/07 08:43:08;;;;;;;36.03;22.13;;;3.20;99.90;;;;;;5000255;28;20397;-91
2022/01/07 08:45:34;;;;;;;39.85;22.30;;;4.20;99.90;;;;;;5032814;28;20126;-93
2022/01/07 08:48:00;;;;;;;34.13;21.20;;;4.30;99.90;;;;;;5014870;28;20469;-90
2022/01/07 08:50:25;;;;;;;39.03;23.13;;;4.80;99.90;;;;;;5015212;28;20088;-91
2022/01/07 08:52:52;;;;;;;33.45;23.65;;;4.40;99.90;;;;;;5015186;28;20137;-89
2022/01/07 08:55:18;;;;;;;34.42;21.73;;;4.30;99.90;;;;;;4998764;28;20088;-92
2022/01/07 08:57:44;;;;;;;37.50;24.27;;;4.40;99.90;;;;;;4983027;28;20084;-93
2022/01/07 09:00:11;;;;;;;40.00;23.88;;;4.30;99.90;;;;;;4981980;28;20088;-93
2022/01/07 09:02:36;;;;;;;37.95;23.40;;;4.40;99.90;;;;;;4999506;28;20057;-91
2022/01/07 09:05:02;;;;;;;32.13;20.23;;;4.80;99.90;;;;;;5016714;28;20053;-91
2022/01/07 09:07:28;;;;;;;37.45;24.73;;;4.50;99.90;;;;;;5015690;28;20051;-93
2022/01/07 09:09:53;;;;;;;37.72;23.85;;;4.60;99.90;;;;;;4999339;28;20064;-92
2022/01/07 09:12:19;;;;;;;38.88;23.13;;;4.70;99.90;;;;;;4999096;28;20049;-96
2022/01/07 09:14:46;;;;;;;35.58;22.42;;;4.70;99.90;;;;;;5014926;28;20205;-93
2022/01/07 09:17:11;;;;;;;32.13;19.23;;;4.80;99.90;;;;;;4997843;28;20080;-89
2022/01/07 09:19:37;;;;;;;34.97;22.58;;;4.80;99.90;;;;;;4998025;28;20058;-91
2022/01/07 09:22:04;;;;;;;33.22;23.58;;;4.80;99.90;;;;;;5014371;28;20053;-89
2022/01/07 09:24:29;;;;;;;38.55;24.15;;;4.70;99.90;;;;;;5034796;28;20605;-91
2022/01/07 09:26:56;;;;;;;34.65;24.00;;;4.80;99.90;;;;;;5016359;28;20057;-93
2022/01/07 09:29:26;;;;;;;42.60;23.60;;;4.90;99.90;;;;;;5015584;28;20104;-94
2022/01/07 09:31:52;;;;;;;39.25;25.08;;;4.90;99.90;;;;;;5035536;28;20046;-93
2022/01/07 09:34:18;;;;;;;41.22;23.70;;;4.90;99.90;;;;;;5021057;28;20056;-92
2022/01/07 09:36:44;;;;;;;39.13;23.52;;;5.90;99.90;;;;;;5017044;28;20096;-92
2022/01/07 09:39:10;;;;;;;39.05;23.98;;;4.90;99.90;;;;;;5015624;28;20544;-93
2022/01/07 09:41:37;;;;;;;35.15;23.08;;;5.10;99.90;;;;;;5015406;28;20041;-92
2022/01/07 09:44:02;;;;;;;40.78;23.63;;;5.10;99.90;;;;;;5035851;28;20042;-92
2022/01/07 09:46:29;;;;;;;31.73;22.38;;;5.20;99.90;;;;;;5015548;28;20161;-93
2022/01/07 09:48:54;;;;;;;37.50;22.88;;;5.20;99.90;;;;;;5022246;28;20049;-89
2022/01/07 09:51:22;;;;;;;39.40;24.88;;;5.20;99.90;;;;;;5039612;28;20041;-92
2022/01/07 09:53:48;;;;;;;38.08;24.45;;;5.20;99.90;;;;;;5002332;28;20493;-92
2022/01/07 09:56:13;;;;;;;38.75;22.27;;;5.20;99.90;;;;;;4982176;28;20145;-89
2022/01/07 09:58:39;;;;;;;33.78;21.15;;;5.30;99.90;;;;;;5014652;28;20077;-88
2022/01/07 10:01:09;;;;;;;34.55;21.48;;;4.90;99.90;;;;;;5025133;28;20379;-89
2022/01/07 10:03:39;;;;;;;37.10;24.10;;;5.50;99.90;;;;;;5015079;28;20241;-90
2022/01/07 10:06:19;;;;;;;39.13;23.80;;;5.40;99.90;;;;;;4999176;28;20065;-89
2022/01/07 10:08:57;;;;;;;40.38;25.63;;;5.30;99.90;;;;;;4998520;28;20089;-88
2022/01/07 10:11:23;;;;;;;41.10;25.85;;;5.30;99.90;;;;;;5029772;28;20071;-87
2022/01/07 10:13:51;;;;;;;35.15;22.27;;;5.30;99.90;;;;;;5030559;28;20056;-87
2022/01/07 10:16:21;;;;;;;37.20;24.00;;;5.30;99.90;;;;;;4997140;28;20057;-88
2022/01/07 10:18:47;;;;;;;41.92;26.00;;;5.30;99.90;;;;;;4998426;28;20104;-88
2022/01/07 10:21:14;;;;;;;34.53;22.73;;;5.20;99.90;;;;;;5013423;28;20049;-90
2022/01/07 10:23:40;;;;;;;27.88;17.48;;;5.90;99.90;;;;;;5013640;28;20072;-87
2022/01/07 10:26:15;;;;;;;32.10;19.85;;;5.20;99.90;;;;;;4995122;28;20053;-94
2022/01/07 10:28:40;;;;;;;28.75;20.02;;;5.10;99.90;;;;;;5014297;28;20059;-90
2022/01/07 10:31:07;;;;;;;24.92;17.15;;;5.60;99.90;;;;;;5029537;28;20120;-92
2022/01/07 10:33:40;;;;;;;25.83;16.17;;;5.20;99.90;;;;;;5028918;28;20045;-93
2022/01/07 10:36:07;;;;;;;27.75;15.32;;;5.30;99.90;;;;;;4997780;28;20084;-91
2022/01/07 10:38:36;;;;;;;19.23;12.57;;;5.50;99.90;;;;;;5029575;28;20702;-92
2022/01/07 10:41:02;;;;;;;20.02;14.40;;;5.60;99.90;;;;;;4977371;28;20068;-94
2022/01/07 10:43:32;;;;;;;20.83;12.80;;;5.50;99.90;;;;;;5010436;28;20440;-91
2022/01/07 10:46:12;;;;;;;17.88;11.80;;;6.20;99.90;;;;;;5030337;28;20091;-90
2022/01/07 10:48:50;;;;;;;16.90;10.10;;;5.40;99.90;;;;;;5029297;28;20529;-87
2022/01/07 10:51:18;;;;;;;13.60;8.40;;;5.40;99.90;;;;;;4998158;28;20444;-86
2022/01/07 10:53:57;;;;;;;10.45;8.13;;;5.80;99.90;;;;;;5013298;28;20088;-88
2022/01/07 10:56:24;;;;;;;12.30;7.65;;;5.50;99.90;;;;;;5014282;28;20047;-87
2022/01/07 10:58:58;;;;;;;11.25;8.02;;;6.40;99.90;;;;;;4980931;28;20556;-87
2022/01/07 11:01:27;;;;;;;13.77;8.48;;;5.20;99.90;;;;;;4980972;28;20382;-88
2022/01/07 11:03:55;;;;;;;14.25;10.10;;;5.20;99.90;;;;;;5013352;28;20099;-89
2022/01/07 11:06:21;;;;;;;14.13;9.73;;;6.10;99.90;;;;;;5013837;28;20505;-90
2022/01/07 11:08:48;;;;;;;15.20;10.10;;;5.10;99.90;;;;;;4997823;28;20053;-89
2022/01/07 11:11:14;;;;;;;15.77;10.68;;;5.10;99.90;;;;;;4996328;28;20560;-90
2022/01/07 11:13:39;;;;;;;16.67;10.88;;;5.20;99.90;;;;;;5012720;28;20137;-90
2022/01/07 11:16:05;;;;;;;13.35;10.30;;;5.30;99.90;;;;;;4997034;28;20053;-90
2022/01/07 11:18:31;;;;;;;19.80;11.15;;;5.30;99.90;;;;;;4997909;28;20067;-87
2022/01/07 11:20:58;;;;;;;18.23;11.40;;;5.40;99.90;;;;;;5010435;28;20049;-85
2022/01/07 11:23:30;;;;;;;18.08;11.35;;;5.50;99.90;;;;;;4993448;28;20483;-90
2022/01/07 11:25:59;;;;;;;16.38;11.65;;;5.60;99.90;;;;;;5011397;28;20518;-86
2022/01/07 11:28:25;;;;;;;20.02;12.73;;;5.70;99.90;;;;;;4993609;28;20050;-91
2022/01/07 11:30:50;;;;;;;19.45;11.73;;;5.80;99.90;;;;;;4994515;28;20064;-88
2022/01/07 11:33:21;;;;;;;17.40;12.07;;;6.00;99.90;;;;;;4993469;28;20061;-84
2022/01/07 11:35:47;;;;;;;16.75;11.23;;;6.00;99.90;;;;;;5000347;28;20111;-86
2022/01/07 11:38:15;;;;;;;18.55;12.00;;;6.20;99.90;;;;;;4996158;28;20053;-86
2022/01/07 11:40:45;;;;;;;21.13;12.20;;;6.20;99.90;;;;;;5012792;28;20049;-87
2022/01/07 11:43:19;;;;;;;20.40;11.60;;;6.20;99.90;;;;;;5015907;28;20056;-87
2022/01/07 11:45:46;;;;;;;20.05;12.48;;;6.30;99.90;;;;;;5032777;28;20041;-86
2022/01/07 11:48:23;;;;;;;27.98;18.80;;;6.20;99.90;;;;;;5016402;28;20076;-86
2022/01/07 11:50:55;;;;;;;15.38;10.05;;;6.20;99.90;;;;;;5017020;28;20077;-85
2022/01/07 11:53:24;;;;;;;16.55;12.38;;;6.10;99.90;;;;;;5016534;28;20577;-86
2022/01/07 11:55:57;;;;;;;20.67;13.23;;;6.20;99.90;;;;;;5033913;28;20124;-88
2022/01/07 11:58:37;;;;;;;21.58;13.05;;;6.00;99.90;;;;;;4984500;28;20052;-87
2022/01/07 12:01:05;;;;;;;21.45;13.10;;;5.90;99.90;;;;;;5001608;28;20405;-89
2022/01/07 12:03:41;;;;;;;26.33;14.35;;;6.40;99.90;;;;;;5014667;28;20552;-87
2022/01/07 12:06:26;;;;;;;22.05;14.20;;;5.90;99.90;;;;;;5016156;28;20416;-84
2022/01/07 12:09:05;;;;;;;23.88;14.50;;;5.80;99.90;;;;;;5031342;28;20048;-85
2022/01/07 12:11:37;;;;;;;22.05;14.50;;;5.70;99.90;;;;;;5014983;28;20053;-87
2022/01/07 12:14:04;;;;;;;24.00;14.65;;;5.60;99.90;;;;;;5013563;28;20383;-87
2022/01/07 12:16:31;;;;;;;27.13;15.68;;;5.60;99.90;;;;;;5012172;28;20045;-87
2022/01/07 12:19:12;;;;;;;23.45;14.35;;;5.60;99.90;;;;;;5013089;28;20068;-86
2022/01/07 12:21:41;;;;;;;20.17;13.68;;;5.70;99.90;;;;;;5030216;28;20049;-85
2022/01/07 12:24:07;;;;;;;21.30;13.73;;;5.80;99.90;;;;;;4999075;28;20049;-86
2022/01/07 12:26:33;;;;;;;20.58;13.48;;;5.80;99.90;;;;;;5014877;28;20041;-85
2022/01/07 12:28:58;;;;;;;18.10;12.95;;;6.10;99.90;;;;;;5032749;28;20397;-86
2022/01/07 12:31:24;;;;;;;17.90;11.35;;;5.80;99.90;;;;;;5033757;28;20053;-85
2022/01/07 12:33:51;;;;;;;23.20;12.00;;;6.00;99.90;;;;;;5015726;28;20142;-86
2022/01/07 12:36:30;;;;;;;13.98;10.10;;;6.40;99.90;;;;;;5032596;28;20406;-85
2022/01/07 12:39:00;;;;;;;14.32;8.27;;;6.00;99.90;;;;;;4999469;28;20057;-85
2022/01/07 12:41:26;;;;;;;11.63;8.02;;;6.00;99.90;;;;;;5032574;28;20056;-85
2022/01/07 12:44:05;;;;;;;13.48;6.97;;;6.00;99.90;;;;;;4999170;28;20281;-86
2022/01/07 12:46:31;;;;;;;11.27;6.55;;;5.90;99.90;;;;;;5016178;28;20041;-85